Time;durP1;ratioP1;P1;durP2;ratioP2;P2;SDS_P1;SDS_P2;PMS_P1;PMS_P2;Temp;Humidity;BMP_temperature;BMP_pressure;BME280_temperature;BME280_humidity;BME280_pressure;Samples;Min_cycle;Max_cycle;Signal;HPM_P1;HPM_P2
2022/02/16 00:02:11;;;;;;;11.25;7.40;;;;;;;-142.75;100.00;76761.25;5052402;28;20081;-67
2022/02/16 00:04:37;;;;;;;9.43;7.80;;;;;;;-142.75;100.00;76759.28;5053745;28;20530;-67
2022/02/16 00:07:02;;;;;;;;;;;;;;;-142.75;100.00;76755.34;5052801;28;20031;-67
2022/02/16 00:09:27;;;;;;;10.20;7.40;;;;;;;-142.75;100.00;76747.47;5053209;28;19913;-68
2022/02/16 00:11:53;;;;;;;10.10;7.87;;;;;;;-142.75;100.00;76751.41;5053557;28;20039;-67
2022/02/16 00:14:18;;;;;;;9.10;7.43;;;;;;;-142.75;100.00;76741.56;5053514;28;20278;-67
2022/02/16 00:16:43;;;;;;;10.63;7.32;;;;;;;-142.75;100.00;76731.72;5053313;28;20521;-67
2022/02/16 00:19:09;;;;;;;9.98;7.03;;;;;;;-142.75;100.00;76735.66;5053102;28;20025;-68
2022/02/16 00:21:34;;;;;;;8.65;6.30;;;;;;;-142.75;100.00;76729.75;5053368;28;20070;-67
2022/02/16 00:23:59;;;;;;;8.70;6.20;;;;;;;-142.75;100.00;76731.72;5052070;28;20025;-68
2022/02/16 00:26:25;;;;;;;7.73;5.90;;;;;;;-142.75;100.00;76729.75;5053358;28;20036;-67
2022/02/16 00:28:50;;;;;;;10.63;6.60;;;;;;;-142.75;100.00;76735.66;5052796;28;20282;-68
2022/02/16 00:31:15;;;;;;;10.68;6.55;;;;;;;-142.75;100.00;76727.78;5053137;28;20020;-67
2022/02/16 00:33:41;;;;;;;8.15;6.25;;;;;;;-142.75;100.00;76719.91;5053252;28;20025;-68
2022/02/16 00:36:06;;;;;;;9.68;6.70;;;;;;;-142.75;100.00;76719.91;5051883;28;20418;-68
2022/02/16 00:38:31;;;;;;;9.70;6.97;;;;;;;-142.75;100.00;76712.03;5052365;28;20135;-67
2022/02/16 00:40:57;;;;;;;9.80;6.40;;;;;;;-142.75;100.00;76714.00;5053066;28;20040;-67
2022/02/16 00:43:22;;;;;;;8.30;6.68;;;;;;;-142.75;100.00;76719.91;5052919;28;20025;-67
2022/02/16 00:45:47;;;;;;;11.30;6.07;;;;;;;-142.75;100.00;76717.94;5051672;28;20024;-67
2022/02/16 00:48:14;;;;;;;10.27;7.07;;;;;;;-142.75;100.00;76719.91;5052740;28;20107;-67
2022/02/16 00:50:40;;;;;;;12.43;7.30;;;;;;;-142.75;100.00;76700.22;5052913;28;20021;-67
2022/02/16 00:53:06;;;;;;;11.80;7.10;;;;;;;-142.75;100.00;76692.34;5051657;28;20375;-68
2022/02/16 00:55:31;;;;;;;9.63;7.47;;;;;;;-142.75;100.00;76694.31;5052805;28;20027;-68
2022/02/16 00:57:56;;;;;;;12.57;8.10;;;;;;;-142.75;100.00;76686.44;5051152;28;20372;-67
2022/02/16 01:00:21;;;;;;;9.63;6.27;;;;;;;-142.75;100.00;76684.47;5052594;28;20329;-67
2022/02/16 01:02:47;;;;;;;11.15;7.53;;;;;;;-142.75;100.00;76686.44;5052586;28;20306;-67
2022/02/16 01:05:13;;;;;;;9.55;6.60;;;;;;;-142.75;100.00;76674.63;5052706;28;20092;-68
2022/02/16 01:07:38;;;;;;;10.45;6.28;;;;;;;-142.75;100.00;76666.75;5052273;28;20056;-67
2022/02/16 01:10:04;;;;;;;11.32;6.68;;;;;;;-142.75;100.00;76664.78;5052371;28;20060;-68
2022/02/16 01:12:30;;;;;;;11.35;6.72;;;;;;;-142.75;100.00;76660.84;5052373;28;20074;-67
2022/02/16 01:14:55;;;;;;;13.15;7.03;;;;;;;-142.75;100.00;76662.81;5052410;28;20030;-67
2022/02/16 01:17:21;;;;;;;13.00;6.90;;;;;;;-142.75;100.00;76651.00;5052358;28;20040;-68
2022/02/16 01:19:46;;;;;;;11.05;6.82;;;;;;;-142.75;100.00;76645.09;5051992;28;20259;-67
2022/02/16 01:22:11;;;;;;;12.35;6.38;;;;;;;-142.75;100.00;76647.06;5052388;28;20056;-67
2022/02/16 01:24:37;;;;;;;14.93;6.53;;;;;;;-142.75;100.00;76649.03;5050856;28;20112;-67
2022/02/16 01:27:02;;;;;;;9.88;6.20;;;;;;;-142.75;100.00;76641.16;5050971;28;20036;-67
2022/02/16 01:29:28;;;;;;;12.50;6.00;;;;;;;-142.75;100.00;76639.19;5051635;28;20025;-67
2022/02/16 01:31:53;;;;;;;8.90;5.65;;;;;;;-142.75;100.00;76629.34;5052182;28;20072;-67
2022/02/16 01:34:18;;;;;;;12.20;7.25;;;;;;;-142.75;100.00;76625.41;5051932;28;20044;-68
2022/02/16 01:36:44;;;;;;;14.70;8.23;;;;;;;-142.75;100.00;76623.44;5052144;28;20036;-67
2022/02/16 01:39:10;;;;;;;18.17;8.18;;;;;;;-142.75;100.00;76621.47;5051550;28;20021;-67
2022/02/16 01:41:35;;;;;;;16.00;9.65;;;;;;;-142.75;100.00;76613.59;5051831;28;20052;-67
2022/02/16 01:44:00;;;;;;;14.63;9.30;;;;;;;-142.75;100.00;76627.38;5050450;28;20025;-68
2022/02/16 01:46:26;;;;;;;15.90;10.10;;;;;;;-142.75;100.00;76617.53;5051688;28;20020;-67
2022/02/16 01:48:52;;;;;;;14.65;10.18;;;;;;;-142.75;100.00;76613.59;5051281;28;20025;-67
2022/02/16 01:51:17;;;;;;;16.27;11.02;;;;;;;-142.75;100.00;76601.78;5051162;28;20068;-67
2022/02/16 01:53:43;;;;;;;17.05;10.52;;;;;;;-142.75;100.00;76597.84;5051717;28;20059;-67
2022/02/16 01:56:08;;;;;;;18.10;11.00;;;;;;;-142.75;100.00;76597.84;5051636;28;20128;-68
2022/02/16 01:58:34;;;;;;;17.58;11.30;;;;;;;-142.75;100.00;76601.78;5051282;28;20025;-67
2022/02/16 02:01:01;;;;;;;18.45;12.60;;;;;;;-142.75;100.00;76582.09;5051485;28;20402;-67
2022/02/16 02:03:27;;;;;;;23.33;12.90;;;;;;;-142.75;100.00;76570.28;5031618;28;20426;-67
2022/02/16 02:05:52;;;;;;;21.75;13.05;;;;;;;-142.75;100.00;76574.22;5031590;28;20059;-67
2022/02/16 02:08:21;;;;;;;19.05;11.85;;;;;;;-142.75;100.00;76566.34;5038872;28;20033;-67
2022/02/16 02:10:47;;;;;;;18.03;12.13;;;;;;;-142.75;100.00;76554.53;5049974;28;20021;-67
2022/02/16 02:13:15;;;;;;;18.55;10.95;;;;;;;-142.75;100.00;76560.44;5051487;28;20390;-67
2022/02/16 02:15:40;;;;;;;17.35;10.43;;;;;;;-142.75;100.00;76556.50;5049974;28;20499;-67
2022/02/16 02:18:05;;;;;;;18.73;10.87;;;;;;;-142.75;100.00;76560.44;5050940;28;20063;-68
2022/02/16 02:20:30;;;;;;;18.15;10.65;;;;;;;-142.75;100.00;76546.66;5049892;28;20294;-67
2022/02/16 02:22:56;;;;;;;23.98;11.15;;;;;;;-142.75;100.00;76550.59;5051141;28;20028;-67
2022/02/16 02:25:22;;;;;;;23.60;11.90;;;;;;;-142.75;100.00;76544.69;5051215;28;20028;-67
2022/02/16 02:27:47;;;;;;;;;;;;;;;-142.75;100.00;76542.72;5051099;28;20031;-67
2022/02/16 02:30:14;;;;;;;16.93;10.53;;;;;;;-142.75;100.00;76536.84;5050981;28;19916;-67
2022/02/16 02:32:45;;;;;;;20.10;11.97;;;;;;;-142.75;100.00;76534.84;5051030;28;20516;-68
2022/02/16 02:35:11;;;;;;;22.47;12.03;;;;;;;-142.75;100.00;76536.84;5051039;28;20029;-66
2022/02/16 02:37:41;;;;;;;17.77;11.37;;;;;;;-142.75;100.00;76528.97;5049555;28;20052;-66
2022/02/16 02:40:08;;;;;;;22.47;12.83;;;;;;;-142.75;100.00;76532.88;5050801;28;20028;-67
2022/02/16 02:42:40;;;;;;;19.10;11.60;;;;;;;-142.75;100.00;76519.13;5050662;28;20025;-67
2022/02/16 02:45:08;;;;;;;20.50;12.43;;;;;;;-142.75;100.00;76519.13;5050830;28;20025;-67
2022/02/16 02:47:33;;;;;;;21.50;11.93;;;;;;;-142.75;100.00;76507.31;5049338;28;20025;-67
2022/02/16 02:49:58;;;;;;;17.55;11.27;;;;;;;-142.75;100.00;76505.34;5050578;28;20528;-67
2022/02/16 02:52:24;;;;;;;15.57;10.05;;;;;;;-142.75;100.00;76491.56;5049380;28;20380;-67
2022/02/16 02:54:49;;;;;;;15.48;10.13;;;;;;;-142.75;100.00;76497.47;5049524;28;20024;-66
2022/02/16 02:57:15;;;;;;;16.60;10.23;;;;;;;-142.75;100.00;76503.38;5050358;28;20025;-67
2022/02/16 02:59:40;;;;;;;16.00;9.73;;;;;;;-142.75;100.00;76505.34;5049349;28;20795;-67
2022/02/16 03:02:05;;;;;;;14.97;9.57;;;;;;;-142.75;100.00;76495.50;5050551;28;20275;-67
2022/02/16 03:04:30;;;;;;;13.63;9.93;;;;;;;-142.75;100.00;76495.50;5049187;28;20340;-67
2022/02/16 03:06:56;;;;;;;16.63;10.05;;;;;;;-142.75;100.00;76489.59;5050601;28;20112;-67
2022/02/16 03:09:21;;;;;;;14.25;10.32;;;;;;;-142.75;100.00;76481.72;5081348;22;20048;-70
2022/02/16 03:11:46;;;;;;;15.73;10.27;;;;;;;-142.75;100.00;76471.88;5068755;28;20497;-71
2022/02/16 03:14:12;;;;;;;14.63;10.23;;;;;;;-142.75;100.00;76483.69;5070540;28;20020;-72
2022/02/16 03:16:37;;;;;;;15.67;9.87;;;;;;;-142.75;100.00;76479.75;5069258;28;20375;-72
2022/02/16 03:19:02;;;;;;;18.30;10.65;;;;;;;-142.75;100.00;76479.75;5070143;28;20368;-72
2022/02/16 03:21:27;;;;;;;17.83;9.52;;;;;;;-142.75;100.00;76465.97;5070519;28;20112;-72
2022/02/16 03:23:53;;;;;;;12.17;8.20;;;;;;;-142.75;100.00;76479.75;5062786;28;20036;-72
2022/02/16 03:26:18;;;;;;;13.77;8.65;;;;;;;-142.75;100.00;76469.91;5047782;28;20366;-72
2022/02/16 03:28:43;;;;;;;10.15;7.88;;;;;;;-142.75;100.00;76464.00;5049881;28;20082;-72
2022/02/16 03:31:09;;;;;;;11.43;8.90;;;;;;;-142.75;100.00;76452.19;5049170;28;20132;-72
2022/02/16 03:33:34;;;;;;;12.07;8.65;;;;;;;-142.75;100.00;76446.28;5065792;28;20017;-71
2022/02/16 03:36:00;;;;;;;13.07;7.75;;;;;;;-142.75;100.00;76430.53;5050127;28;20115;-71
2022/02/16 03:38:25;;;;;;;10.52;6.93;;;;;;;-142.75;100.00;76438.41;5047186;28;20056;-71
2022/02/16 03:40:53;;;;;;;10.15;7.07;;;;;;;-142.75;100.00;76436.44;5050258;28;20032;-71
2022/02/16 03:43:18;;;;;;;12.10;7.53;;;;;;;-142.75;100.00;76416.75;5050141;28;20406;-72
2022/02/16 03:45:44;;;;;;;9.50;6.38;;;;;;;-142.75;100.00;76430.53;5050246;28;20108;-72
2022/02/16 03:48:10;;;;;;;10.63;6.10;;;;;;;-142.75;100.00;76426.59;5049876;28;20045;-72
2022/02/16 03:50:35;;;;;;;9.98;6.65;;;;;;;-142.75;100.00;76418.72;5053685;28;20021;-71
2022/02/16 03:53:01;;;;;;;8.30;5.47;;;;;;;-142.75;100.00;76412.81;5058079;28;20047;-72
2022/02/16 03:55:26;;;;;;;14.55;6.43;;;;;;;-142.75;100.00;76391.16;5050085;28;20021;-72
2022/02/16 03:57:51;;;;;;;10.57;6.65;;;;;;;-142.75;100.00;76412.81;5049805;28;20489;-71
2022/02/16 04:00:17;;;;;;;9.07;5.93;;;;;;;-142.75;100.00;76408.88;5048742;28;20021;-71
2022/02/16 04:02:42;;;;;;;11.67;8.53;;;;;;;-142.75;100.00;76404.94;5060846;28;20059;-72
2022/02/16 04:05:08;;;;;;;10.20;7.57;;;;;;;-142.75;100.00;76387.22;5069986;28;20263;-71
2022/02/16 04:07:34;;;;;;;13.15;8.73;;;;;;;-142.75;100.00;76389.19;5054086;28;20238;-72
2022/02/16 04:09:59;;;;;;;12.45;9.27;;;;;;;-142.75;100.00;76381.31;5049589;28;20094;-72
2022/02/16 04:12:24;;;;;;;12.70;9.07;;;;;;;-142.75;100.00;76365.56;5048581;28;20470;-72
2022/02/16 04:14:50;;;;;;;13.27;8.57;;;;;;;-142.75;100.00;76355.72;5053563;28;20028;-72
2022/02/16 04:17:15;;;;;;;12.15;8.45;;;;;;;-142.75;100.00;76343.94;5053525;28;20028;-71
2022/02/16 04:19:40;;;;;;;12.60;8.83;;;;;;;-142.75;100.00;76345.91;5053208;28;20025;-72
2022/02/16 04:22:07;;;;;;;10.83;8.33;;;;;;;-142.75;100.00;76334.09;5053415;28;20354;-71
2022/02/16 04:24:32;;;;;;;11.65;8.32;;;;;;;-142.75;100.00;76347.84;5050697;28;20279;-72
2022/02/16 04:26:57;;;;;;;10.65;7.03;;;;;;;-142.75;100.00;76330.16;5057787;28;20460;-72
2022/02/16 04:29:23;;;;;;;11.75;6.80;;;;;;;-142.75;100.00;76328.19;5066148;28;20474;-71
2022/02/16 04:31:48;;;;;;;9.48;6.82;;;;;;;-142.75;100.00;76314.41;5052324;28;20041;-71
2022/02/16 04:34:13;;;;;;;8.93;6.70;;;;;;;-142.75;100.00;76314.41;5065839;28;20029;-72
2022/02/16 04:36:39;;;;;;;8.57;6.43;;;;;;;-142.75;100.00;76298.66;5053273;28;20028;-72
2022/02/16 04:39:05;;;;;;;;;;;;;;;-142.75;100.00;76300.63;5060320;28;20032;-71
2022/02/16 04:41:30;;;;;;;7.17;5.37;;;;;;;-142.75;100.00;76302.59;5063778;28;19912;-72
2022/02/16 04:43:55;;;;;;;8.30;5.25;;;;;;;-142.75;100.00;76280.94;5057700;28;20032;-71
2022/02/16 04:46:21;;;;;;;7.35;5.25;;;;;;;-142.75;100.00;76284.88;5057440;28;20025;-72
2022/02/16 04:48:46;;;;;;;9.23;5.07;;;;;;;-142.75;100.00;76278.97;5052683;28;20486;-72
2022/02/16 04:51:12;;;;;;;9.02;5.78;;;;;;;-142.75;100.00;76280.94;5070202;28;20039;-71
2022/02/16 04:53:37;;;;;;;8.98;6.13;;;;;;;-142.75;100.00;76271.09;5070360;28;20016;-72
2022/02/16 04:56:05;;;;;;;9.35;5.95;;;;;;;-142.75;100.00;76267.16;5061656;28;20048;-72
2022/02/16 04:58:30;;;;;;;9.23;6.70;;;;;;;-142.75;100.00;76288.81;5057396;28;20056;-73
2022/02/16 05:00:56;;;;;;;10.80;5.75;;;;;;;-142.75;100.00;76269.13;5058320;28;20556;-71
2022/02/16 05:03:22;;;;;;;9.05;6.35;;;;;;;-142.75;100.00;76267.16;5052640;28;20026;-71
2022/02/16 05:05:47;;;;;;;8.60;6.15;;;;;;;-142.75;100.00;76253.38;5052710;28;20031;-71
2022/02/16 05:08:12;;;;;;;8.07;5.83;;;;;;;-142.75;100.00;76263.22;5051618;28;20074;-72
2022/02/16 05:10:38;;;;;;;11.48;5.88;;;;;;;-142.75;100.00;76257.31;5052547;28;20271;-72
2022/02/16 05:13:03;;;;;;;9.40;5.68;;;;;;;-142.75;100.00;76235.66;5051340;28;20438;-71
2022/02/16 05:15:28;;;;;;;9.18;6.28;;;;;;;-142.75;100.00;76245.50;5052681;28;20033;-72
2022/02/16 05:17:54;;;;;;;12.63;6.43;;;;;;;-142.75;100.00;76233.69;5052143;28;20525;-71
2022/02/16 05:20:19;;;;;;;7.78;5.57;;;;;;;-142.75;100.00;76233.69;5058011;28;20035;-72
2022/02/16 05:22:45;;;;;;;11.40;6.50;;;;;;;-142.75;100.00;76225.81;5052228;28;20082;-72
2022/02/16 05:25:10;;;;;;;9.77;6.20;;;;;;;-142.75;100.00;76217.94;5051075;28;20486;-71
2022/02/16 05:27:36;;;;;;;9.30;5.22;;;;;;;-142.75;100.00;76208.09;5057927;28;20028;-71
2022/02/16 05:30:02;;;;;;;7.97;5.85;;;;;;;-142.75;100.00;76212.03;5070579;28;20182;-71
2022/02/16 05:32:28;;;;;;;8.33;5.97;;;;;;;-142.75;100.00;76200.25;5071914;28;20028;-72
2022/02/16 05:34:53;;;;;;;9.57;5.90;;;;;;;-142.75;100.00;76190.41;5052107;28;20560;-71
2022/02/16 05:37:18;;;;;;;9.77;6.70;;;;;;;-142.75;100.00;76184.50;5050760;28;20274;-72
2022/02/16 05:39:44;;;;;;;9.35;6.32;;;;;;;-142.75;100.00;76174.66;5050309;28;20119;-72
2022/02/16 05:42:09;;;;;;;7.45;5.40;;;;;;;-142.75;100.00;76168.75;5058743;28;20444;-72
2022/02/16 05:44:34;;;;;;;7.93;5.40;;;;;;;-142.75;100.00;76158.91;5071609;28;20073;-72
2022/02/16 05:47:00;;;;;;;8.63;5.73;;;;;;;-142.75;100.00;76154.97;5070525;28;20028;-71
2022/02/16 05:49:25;;;;;;;7.30;5.82;;;;;;;-142.75;100.00;76153.00;5071269;28;20107;-72
2022/02/16 05:51:50;;;;;;;8.35;6.13;;;;;;;-142.75;100.00;76156.94;5071749;28;20070;-71
2022/02/16 05:54:16;;;;;;;8.18;5.90;;;;;;;-142.75;100.00;76143.16;5071591;28;20048;-71
2022/02/16 05:56:41;;;;;;;7.28;5.82;;;;;;;-142.75;100.00;76129.38;5071516;28;20119;-71
2022/02/16 05:59:06;;;;;;;7.70;4.97;;;;;;;-142.75;100.00;76117.56;5071280;28;20474;-72
2022/02/16 06:01:32;;;;;;;10.02;5.53;;;;;;;-142.75;100.00;76121.50;5071470;28;20025;-72
2022/02/16 06:03:57;;;;;;;7.47;5.25;;;;;;;-142.75;100.00;76121.50;5071456;28;20020;-71
2022/02/16 06:06:23;;;;;;;7.73;5.30;;;;;;;-142.75;100.00;76121.50;5071355;28;20493;-71
2022/02/16 06:08:48;;;;;;;8.25;5.40;;;;;;;-142.75;100.00;76117.56;5069579;28;20266;-71
2022/02/16 06:11:14;;;;;;;9.50;6.22;;;;;;;-142.75;100.00;76101.81;5070074;28;20028;-71
2022/02/16 06:13:40;;;;;;;9.05;5.90;;;;;;;-142.75;100.00;76109.69;5050124;28;20104;-71
2022/02/16 06:16:06;;;;;;;8.88;5.85;;;;;;;-142.75;100.00;76119.53;5051361;28;20071;-71
2022/02/16 06:18:31;;;;;;;8.55;5.97;;;;;;;-142.75;100.00;76105.75;5050855;28;20025;-71
2022/02/16 06:20:56;;;;;;;7.63;5.20;;;;;;;-142.75;100.00;76115.59;5051302;28;20112;-71
2022/02/16 06:23:22;;;;;;;7.78;5.55;;;;;;;-142.75;100.00;76113.63;5049755;28;20074;-72
2022/02/16 06:25:47;;;;;;;7.60;5.50;;;;;;;-142.75;100.00;76113.63;5071113;28;20505;-71
2022/02/16 06:28:13;;;;;;;8.00;5.10;;;;;;;-142.75;100.00;76111.66;5070721;28;20036;-71
2022/02/16 06:30:38;;;;;;;8.80;5.50;;;;;;;-142.75;100.00;76109.69;5059451;28;20024;-71
2022/02/16 06:33:03;;;;;;;6.78;5.13;;;;;;;-142.75;100.00;76115.59;5051100;28;20029;-71
2022/02/16 06:35:29;;;;;;;8.27;5.40;;;;;;;-142.75;100.00;76125.44;5049307;28;20596;-71
2022/02/16 06:37:54;;;;;;;8.57;5.68;;;;;;;-142.75;100.00;76113.63;5050622;28;20107;-71
2022/02/16 06:40:20;;;;;;;9.23;6.43;;;;;;;-142.75;100.00;76111.66;5050854;28;20013;-71
2022/02/16 06:42:45;;;;;;;8.10;5.60;;;;;;;-142.75;100.00;76105.75;5050817;28;20618;-71
2022/02/16 06:45:11;;;;;;;8.40;5.82;;;;;;;-142.75;100.00;76109.69;5050828;28;20104;-71
2022/02/16 06:47:37;;;;;;;7.70;5.53;;;;;;;-142.75;100.00;76111.66;5050881;28;20025;-72
2022/02/16 06:50:04;;;;;;;8.35;5.88;;;;;;;-142.75;100.00;76117.56;5050377;28;20538;-71
2022/02/16 06:52:29;;;;;;;7.88;4.85;;;;;;;-142.75;100.00;76115.59;5061128;28;20067;-71
2022/02/16 06:54:54;;;;;;;7.97;5.47;;;;;;;-142.75;100.00;76121.50;5070760;28;20063;-71
2022/02/16 06:57:20;;;;;;;7.15;4.55;;;;;;;-142.75;100.00;76121.50;5069452;28;20478;-71
2022/02/16 06:59:45;;;;;;;6.63;4.25;;;;;;;-142.75;100.00;76099.84;5070410;28;20036;-71
2022/02/16 07:02:11;;;;;;;5.80;3.75;;;;;;;-142.75;100.00;76105.75;5070610;28;20063;-72
2022/02/16 07:04:36;;;;;;;6.47;4.07;;;;;;;-142.75;100.00;76101.81;5070629;28;20123;-71
2022/02/16 07:07:02;;;;;;;5.55;3.25;;;;;;;-142.75;100.00;76101.81;5070514;28;20107;-72
2022/02/16 07:09:27;;;;;;;6.72;3.83;;;;;;;-142.75;100.00;76097.88;5070087;28;20028;-71
2022/02/16 07:11:52;;;;;;;5.60;3.45;;;;;;;-142.75;100.00;76093.94;5070558;28;20025;-72
2022/02/16 07:14:22;;;;;;;6.60;3.88;;;;;;;-142.75;100.00;76095.91;5070483;28;20020;-71
2022/02/16 07:16:47;;;;;;;8.23;3.65;;;;;;;-142.75;100.00;76088.03;5070378;28;20513;-71
2022/02/16 07:19:13;;;;;;;9.63;5.40;;;;;;;-142.75;100.00;76090.00;5067840;28;20024;-71
2022/02/16 07:21:38;;;;;;;8.10;4.55;;;;;;;-142.75;100.00;76078.19;5050231;28;20489;-70
2022/02/16 07:24:04;;;;;;;6.85;3.60;;;;;;;-142.75;100.00;76080.16;5049417;28;20052;-70
2022/02/16 07:26:30;;;;;;;6.38;4.10;;;;;;;-142.75;100.00;76078.19;5049491;28;20039;-71
2022/02/16 07:28:55;;;;;;;5.82;4.07;;;;;;;-142.75;100.00;76080.16;5049285;28;20029;-71
2022/02/16 07:31:21;;;;;;;6.38;3.90;;;;;;;-142.75;100.00;76082.13;5047981;28;20043;-71
2022/02/16 07:33:46;;;;;;;6.75;4.55;;;;;;;-142.75;100.00;76080.16;5047271;28;20013;-71
2022/02/16 07:36:11;;;;;;;11.80;5.20;;;;;;;-142.75;100.00;76070.34;5049403;28;20040;-71
2022/02/16 07:38:37;;;;;;;11.45;5.90;;;;;;;-142.75;100.00;76074.25;5048997;28;20024;-71
2022/02/16 07:41:02;;;;;;;10.63;5.60;;;;;;;-142.75;100.00;76074.25;5049385;28;20470;-71
2022/02/16 07:43:28;;;;;;;12.48;5.85;;;;;;;-142.75;100.00;76086.06;5049399;28;20048;-71
2022/02/16 07:45:54;;;;;;;14.48;6.78;;;;;;;-142.75;100.00;76066.41;5049329;28;20048;-71
2022/02/16 07:48:19;;;;;;;12.23;6.50;;;;;;;-142.75;100.00;76070.34;5050177;28;20052;-72
2022/02/16 07:50:44;;;;;;;13.23;7.18;;;;;;;-142.75;100.00;76054.59;5052911;28;20031;-70
2022/02/16 07:53:11;;;;;;;17.90;8.05;;;;;;;-142.75;100.00;76068.38;5053249;28;20048;-71
2022/02/16 07:55:37;;;;;;;20.23;7.75;;;;;;;-142.75;100.00;76066.41;5053232;28;20036;-70
2022/02/16 07:58:04;;;;;;;21.88;7.60;;;;;;;-142.75;100.00;76066.41;5051294;28;20127;-70
2022/02/16 08:00:30;;;;;;;21.05;8.57;;;;;;;-142.75;100.00;76046.72;5051581;28;20029;-70
2022/02/16 08:02:55;;;;;;;17.58;7.47;;;;;;;-142.75;100.00;76062.47;5052776;28;20060;-71
2022/02/16 08:05:21;;;;;;;26.38;6.93;;;;;;;-142.75;100.00;76056.56;5072638;28;20032;-71
2022/02/16 08:07:46;;;;;;;25.83;7.15;;;;;;;-142.75;100.00;76048.69;5072744;28;20539;-71
2022/02/16 08:10:11;;;;;;;21.02;7.38;;;;;;;-142.75;100.00;76050.66;5071297;28;20035;-71
2022/02/16 08:12:48;;;;;;;26.20;6.57;;;;;;;-142.75;100.00;76046.72;5072875;28;20024;-71
2022/02/16 08:15:13;;;;;;;;;;;;;;;-142.75;100.00;76042.78;5073172;28;20121;-70
2022/02/16 08:17:41;;;;;;;27.63;6.13;;;;;;;-142.75;100.00;76050.66;5071152;28;20346;-71
2022/02/16 08:20:12;;;;;;;23.92;5.90;;;;;;;-142.75;100.00;76052.63;5065808;28;20033;-71
2022/02/16 08:22:37;;;;;;;26.08;5.70;;;;;;;-142.75;100.00;76042.78;5051298;28;20031;-71
2022/02/16 08:25:05;;;;;;;29.17;5.72;;;;;;;-142.75;100.00;76044.75;5052541;28;20029;-71
2022/02/16 08:27:30;;;;;;;29.15;5.35;;;;;;;-142.75;100.00;76042.78;5051171;28;20120;-71
2022/02/16 08:29:55;;;;;;;23.50;5.05;;;;;;;-142.75;100.00;76036.88;5052019;28;20452;-71
2022/02/16 08:32:20;;;;;;;31.98;5.28;;;;;;;-142.75;100.00;76030.97;5050832;28;20021;-71
2022/02/16 08:34:46;;;;;;;20.65;4.25;;;;;;;-142.75;100.00;76025.06;5052053;28;20037;-71
2022/02/16 08:37:11;;;;;;;30.13;5.13;;;;;;;-142.75;100.00;76021.13;5052068;28;20444;-71
2022/02/16 08:39:36;;;;;;;38.50;5.47;;;;;;;-142.75;100.00;76013.25;5051998;28;20732;-71
2022/02/16 08:42:02;;;;;;;28.23;6.22;;;;;;;-142.75;100.00;76005.38;5052203;28;20029;-71
2022/02/16 08:44:28;;;;;;;;;;;;;;;-142.75;100.00;75999.47;5052306;28;20020;-71
2022/02/16 08:46:53;;;;;;;27.30;3.90;;;;;;;-142.75;100.00;76007.34;5052195;28;19920;-71
2022/02/16 08:49:18;;;;;;;40.42;4.85;;;;;;;-142.75;100.00;75999.47;5051469;28;20021;-71
2022/02/16 08:51:45;;;;;;;33.13;4.15;;;;;;;-142.75;100.00;76003.41;5050904;28;20041;-71
2022/02/16 08:54:10;;;;;;;24.60;4.00;;;;;;;-142.75;100.00;75995.53;5051956;28;20044;-71
2022/02/16 08:56:35;;;;;;;30.10;5.57;;;;;;;-142.75;100.00;76003.41;5050591;28;20021;-71
2022/02/16 08:59:01;;;;;;;38.75;5.15;;;;;;;-142.75;100.00;75987.66;5050031;28;20020;-70
2022/02/16 09:01:32;;;;;;;36.72;4.43;;;;;;;-142.75;100.00;75991.59;5050550;28;20081;-71
2022/02/16 09:04:02;;;;;;;38.10;5.45;;;;;;;-142.75;100.00;75983.72;5051474;28;20486;-71
2022/02/16 09:06:28;;;;;;;31.08;5.68;;;;;;;-142.75;100.00;75999.47;5050163;28;20048;-71
2022/02/16 09:08:54;;;;;;;34.47;5.32;;;;;;;-142.75;100.00;75987.66;5051308;28;20092;-71
2022/02/16 09:11:20;;;;;;;;;;;;;;;-142.75;100.00;75981.75;5063623;28;20025;-71
2022/02/16 09:13:45;;;;;;;29.30;4.30;;;;;;;-142.75;100.00;75967.97;5071445;28;19923;-70
2022/02/16 09:16:11;;;;;;;30.83;4.60;;;;;;;-142.75;100.00;75971.91;5071558;28;20031;-72
2022/02/16 09:18:37;;;;;;;30.88;4.80;;;;;;;-142.75;100.00;75973.88;5070969;28;20087;-70
2022/02/16 09:21:05;;;;;;;31.77;5.25;;;;;;;-142.75;100.00;75964.03;5064185;28;20039;-72
2022/02/16 09:23:40;;;;;;;30.48;4.65;;;;;;;-142.75;100.00;75958.16;5049938;28;20021;-71
2022/02/16 09:26:06;;;;;;;31.70;4.50;;;;;;;-142.75;100.00;75942.41;5050709;28;20371;-72
2022/02/16 09:28:32;;;;;;;31.40;4.68;;;;;;;-142.75;100.00;75932.56;5050991;28;20025;-71
2022/02/16 09:30:58;;;;;;;;;;;;;;;-142.75;100.00;75910.91;5050440;28;20025;-71
2022/02/16 09:33:24;;;;;;;28.35;4.55;;;;;;;-142.75;100.00;75893.19;5050501;28;20481;-71
2022/02/16 09:35:49;;;;;;;40.05;5.07;;;;;;;-142.75;100.00;75879.41;5051086;28;20461;-72
2022/02/16 09:38:14;;;;;;;25.17;4.78;;;;;;;-142.75;100.00;75865.63;5049365;28;20036;-72
2022/02/16 09:40:45;;;;;;;22.90;4.18;;;;;;;-142.75;100.00;75851.88;5049760;28;20025;-71
2022/02/16 09:43:13;;;;;;;30.67;4.05;;;;;;;-142.75;100.00;75838.09;5049637;28;20036;-72
2022/02/16 09:45:38;;;;;;;27.15;4.32;;;;;;;-142.75;100.00;75842.03;5051099;28;20031;-72
2022/02/16 09:48:04;;;;;;;28.83;3.85;;;;;;;-142.75;100.00;75838.09;5050150;28;20028;-72
2022/02/16 09:50:29;;;;;;;;;;;;;;;-142.75;100.00;75838.09;5051250;28;20020;-71
2022/02/16 09:52:55;;;;;;;18.05;3.63;;;;;;;-142.75;100.00;75851.88;5050838;28;20271;-71
2022/02/16 09:55:20;;;;;;;26.52;4.25;;;;;;;-142.75;100.00;75836.13;5050779;28;20028;-72
2022/02/16 09:57:45;;;;;;;31.88;5.20;;;;;;;-142.75;100.00;75824.31;5050623;28;20025;-72
2022/02/16 10:00:12;;;;;;;25.52;3.83;;;;;;;-142.75;100.00;75842.03;5050540;28;20025;-71
2022/02/16 10:02:40;;;;;;;26.60;4.40;;;;;;;-142.75;100.00;75830.22;5049228;28;20029;-71
2022/02/16 10:05:07;;;;;;;18.30;3.20;;;;;;;-142.75;100.00;75822.34;5050478;28;20025;-73
2022/02/16 10:07:35;;;;;;;23.88;3.70;;;;;;;-142.75;100.00;75836.13;5066083;28;20023;-71
2022/02/16 10:10:19;;;;;;;17.95;3.70;;;;;;;-142.75;100.00;75838.09;5068430;28;20031;-71
2022/02/16 10:12:48;;;;;;;25.27;4.35;;;;;;;-142.75;100.00;75838.09;5070454;28;20032;-72
2022/02/16 10:15:35;;;;;;;17.20;3.60;;;;;;;-142.75;100.00;75842.03;5070384;28;20124;-72
2022/02/16 10:18:06;;;;;;;23.55;5.03;;;;;;;-142.75;100.00;75855.81;5069811;28;20379;-71
2022/02/16 10:20:31;;;;;;;24.00;4.20;;;;;;;-142.75;100.00;75861.69;5049850;28;20601;-71
2022/02/16 10:22:57;;;;;;;27.73;3.95;;;;;;;-142.75;100.00;75857.78;5050424;28;20115;-72
2022/02/16 10:25:28;;;;;;;30.02;5.18;;;;;;;-142.75;100.00;75867.59;5050095;28;20024;-71
2022/02/16 10:28:16;;;;;;;25.05;4.30;;;;;;;-142.75;100.00;75865.63;5049724;28;20035;-72
2022/02/16 10:31:04;;;;;;;25.00;3.58;;;;;;;-142.75;100.00;75845.97;5062669;28;20040;-72
2022/02/16 10:33:42;;;;;;;23.35;3.40;;;;;;;-142.75;100.00;75851.88;5066845;28;20020;-72
2022/02/16 10:36:15;;;;;;;26.05;4.57;;;;;;;-142.75;100.00;75859.72;5050191;28;20052;-72
2022/02/16 10:39:00;;;;;;;34.38;3.95;;;;;;;-142.75;100.00;75855.81;5054415;28;20123;-71
2022/02/16 10:41:34;;;;;;;22.02;4.15;;;;;;;-142.75;100.00;75845.97;5065880;28;20494;-72
2022/02/16 10:44:00;;;;;;;26.25;4.55;;;;;;;-142.75;100.00;75849.91;5048519;28;20029;-72
2022/02/16 10:46:29;;;;;;;;;;;;;;;-142.75;100.00;75849.91;5048519;28;20477;-72
2022/02/16 10:49:25;;;;;;;23.90;4.88;;;;;;;-142.75;100.00;75847.94;5048226;28;20372;-72
2022/02/16 10:52:03;;;;;;;17.30;3.42;;;;;;;-142.75;100.00;75842.03;5037147;28;20040;-70
2022/02/16 10:54:28;;;;;;;30.23;3.70;;;;;;;-142.75;100.00;75842.03;5049501;28;20013;-69
2022/02/16 10:56:54;;;;;;;28.67;3.90;;;;;;;-142.75;100.00;75847.94;5055728;28;20441;-69
2022/02/16 10:59:19;;;;;;;24.67;3.47;;;;;;;-142.75;100.00;75855.81;5068137;28;20691;-69
2022/02/16 11:01:45;;;;;;;33.92;5.30;;;;;;;-142.75;100.00;75873.50;5067337;28;20284;-69